Aeroporto :
LOGIN :

Iscrizione | Disclaimer

   EN    FR    IT 

 










Sommario :    VFR   VFR Marginale   IFR   IFR Intensivo   IFR Molto Intensivo
Visibilità : 
Base nubi : 
>= 8 km
>= 3000ft
5 / 8 km
1000 / 3000 ft
1500m / 5 km
500 / 1000 ft
800 / 1500m
200 / 500 ft
< 800m
< 200 ft
Simboli :   Temporali  Nebbia  Neve Forte  Precipitazioni Forti  Vento > 20 kt
SIGMETs :   Varie  Temporali  Ghiacco  Turbolenza  Onda orograficha  Ceneri Vulcaniche






- Altitudine del aeroporto : 26 ft
- Codice IATA : BIA


LFKB - Bastia

ULTIMO METAR :
  • 141230Z AUTO 12012KT 080V150 9999 SCT025 SCT030 BKN047 23/16 Q1019 NOSIG

METARs OBSOLETI :
  • 141200Z AUTO 11013KT 080V140 9999 SCT025 SCT030 BKN039 23/15 Q1019 NOSIG
  • 141130Z AUTO 13013KT 100V160 9999 FEW025 SCT031 24/16 Q1019 NOSIG
  • 141100Z AUTO 13014KT 090V160 9999 FEW023 SCT037 24/16 Q1019 NOSIG
  • 141030Z AUTO 12012KT 090V160 9999 FEW026 SCT048 24/16 Q1019 NOSIG
  • 141000Z AUTO 13012KT 9999 FEW032 24/16 Q1019 NOSIG
  • 140930Z AUTO 13012KT 9999 FEW034 24/15 Q1019 NOSIG
  • 140900Z AUTO 12010KT 070V150 9999 FEW034 SCT043 24/15 Q1019 NOSIG
  • 140830Z AUTO 09009KT 050V130 9999 FEW027 23/16 Q1019 NOSIG

TAF TAF LFKB
Valido dal 14 a 09 ore il 15 a 09 ore UTC


140800Z 1409/1509 14012KT 9999 SCT020 TX25/1411Z TN15/1504Z
BECMG 1418/1420 22006KT
ATIS : +33 4 95 59 19 40



MetMap, La meteo Aeronautica in un colpo d'occhio ! - Copyright ORBIFLY Dicembre 2007 - Disclaimer

ORBIFLY MET'MAP TEAM :

Programmazione e sviluppo : Alexandra Zaïnal
Concezione : Baudouin d'Aumeries
Supporto tecnico e logistico : Manuel Goepfert
Aiuto : Marc-Olivier Méhu
Aiuto per la traduzione : Arnaldo La Scala




FONTI E CREDITI :

   NOAA